sensor_id;sensor_type;location;lat;lon;timestamp;P1;durP1;ratioP1;P2;durP2;ratioP2
72286;SDS011;60221;45.696;16.076;2023-03-14T00:01:26;4.70;;;0.70;;
72286;SDS011;60221;45.696;16.076;2023-03-14T00:03:53;5.10;;;0.50;;
72286;SDS011;60221;45.696;16.076;2023-03-14T00:06:19;5.20;;;1.00;;
72286;SDS011;60221;45.696;16.076;2023-03-14T00:08:47;8.40;;;1.10;;
72286;SDS011;60221;45.696;16.076;2023-03-14T00:11:15;6.10;;;1.30;;
72286;SDS011;60221;45.696;16.076;2023-03-14T00:13:42;5.70;;;0.90;;
72286;SDS011;60221;45.696;16.076;2023-03-14T00:16:10;10.20;;;1.50;;
72286;SDS011;60221;45.696;16.076;2023-03-14T00:18:38;6.50;;;1.10;;
72286;SDS011;60221;45.696;16.076;2023-03-14T00:21:05;5.00;;;0.90;;
72286;SDS011;60221;45.696;16.076;2023-03-14T00:23:34;5.50;;;1.10;;
72286;SDS011;60221;45.696;16.076;2023-03-14T00:26:02;4.50;;;0.60;;
72286;SDS011;60221;45.696;16.076;2023-03-14T00:28:29;4.60;;;0.80;;
72286;SDS011;60221;45.696;16.076;2023-03-14T00:30:55;4.60;;;0.60;;
72286;SDS011;60221;45.696;16.076;2023-03-14T00:33:23;4.80;;;0.60;;
72286;SDS011;60221;45.696;16.076;2023-03-14T00:35:56;4.50;;;0.60;;
72286;SDS011;60221;45.696;16.076;2023-03-14T00:38:24;5.50;;;1.00;;
72286;SDS011;60221;45.696;16.076;2023-03-14T00:40:51;4.90;;;0.90;;
72286;SDS011;60221;45.696;16.076;2023-03-14T00:43:18;5.40;;;0.90;;
72286;SDS011;60221;45.696;16.076;2023-03-14T00:45:48;6.20;;;1.20;;
72286;SDS011;60221;45.696;16.076;2023-03-14T00:48:15;6.70;;;1.30;;
72286;SDS011;60221;45.696;16.076;2023-03-14T00:50:42;6.00;;;1.60;;
72286;SDS011;60221;45.696;16.076;2023-03-14T00:53:09;6.90;;;1.50;;
72286;SDS011;60221;45.696;16.076;2023-03-14T00:55:36;6.70;;;1.50;;
72286;SDS011;60221;45.696;16.076;2023-03-14T00:58:03;9.60;;;2.50;;
72286;SDS011;60221;45.696;16.076;2023-03-14T01:00:30;9.80;;;2.10;;
72286;SDS011;60221;45.696;16.076;2023-03-14T01:02:57;8.10;;;2.30;;
72286;SDS011;60221;45.696;16.076;2023-03-14T01:05:23;8.80;;;2.50;;
72286;SDS011;60221;45.696;16.076;2023-03-14T01:07:50;9.40;;;2.40;;
72286;SDS011;60221;45.696;16.076;2023-03-14T01:10:17;6.70;;;1.80;;
72286;SDS011;60221;45.696;16.076;2023-03-14T01:12:44;9.10;;;2.10;;
72286;SDS011;60221;45.696;16.076;2023-03-14T01:15:10;8.70;;;2.00;;
72286;SDS011;60221;45.696;16.076;2023-03-14T01:17:37;6.90;;;1.50;;
72286;SDS011;60221;45.696;16.076;2023-03-14T01:20:08;9.10;;;2.30;;
72286;SDS011;60221;45.696;16.076;2023-03-14T01:22:36;6.90;;;1.20;;
72286;SDS011;60221;45.696;16.076;2023-03-14T01:25:02;6.70;;;1.40;;
72286;SDS011;60221;45.696;16.076;2023-03-14T01:27:29;6.10;;;0.80;;
72286;SDS011;60221;45.696;16.076;2023-03-14T01:29:56;4.90;;;0.60;;
72286;SDS011;60221;45.696;16.076;2023-03-14T01:32:23;4.20;;;0.50;;
72286;SDS011;60221;45.696;16.076;2023-03-14T01:34:51;3.20;;;0.40;;
72286;SDS011;60221;45.696;16.076;2023-03-14T01:37:17;4.20;;;0.40;;
72286;SDS011;60221;45.696;16.076;2023-03-14T01:39:46;4.90;;;0.40;;
72286;SDS011;60221;45.696;16.076;2023-03-14T01:42:13;2.90;;;0.40;;
72286;SDS011;60221;45.696;16.076;2023-03-14T01:45:53;4.00;;;0.40;;
72286;SDS011;60221;45.696;16.076;2023-03-14T01:47:32;4.40;;;0.60;;
72286;SDS011;60221;45.696;16.076;2023-03-14T01:50:02;2.10;;;0.20;;
72286;SDS011;60221;45.696;16.076;2023-03-14T01:52:39;3.00;;;0.20;;
72286;SDS011;60221;45.696;16.076;2023-03-14T01:55:12;2.80;;;0.30;;
72286;SDS011;60221;45.696;16.076;2023-03-14T01:57:41;4.60;;;0.50;;
72286;SDS011;60221;45.696;16.076;2023-03-14T02:00:18;3.90;;;0.20;;
72286;SDS011;60221;45.696;16.076;2023-03-14T02:02:48;5.40;;;0.30;;
72286;SDS011;60221;45.696;16.076;2023-03-14T02:05:19;2.40;;;0.20;;
72286;SDS011;60221;45.696;16.076;2023-03-14T02:07:54;4.10;;;0.30;;
72286;SDS011;60221;45.696;16.076;2023-03-14T02:10:29;4.40;;;0.40;;
72286;SDS011;60221;45.696;16.076;2023-03-14T02:12:59;3.60;;;0.20;;
72286;SDS011;60221;45.696;16.076;2023-03-14T02:16:02;3.10;;;0.40;;
72286;SDS011;60221;45.696;16.076;2023-03-14T02:18:48;3.90;;;0.40;;
72286;SDS011;60221;45.696;16.076;2023-03-14T02:22:16;4.60;;;0.40;;
72286;SDS011;60221;45.696;16.076;2023-03-14T02:24:42;4.90;;;0.50;;
72286;SDS011;60221;45.696;16.076;2023-03-14T02:27:15;4.60;;;0.50;;
72286;SDS011;60221;45.696;16.076;2023-03-14T02:29:54;4.00;;;0.60;;
72286;SDS011;60221;45.696;16.076;2023-03-14T02:32:23;3.80;;;0.40;;
72286;SDS011;60221;45.696;16.076;2023-03-14T02:34:52;4.40;;;0.60;;
72286;SDS011;60221;45.696;16.076;2023-03-14T02:37:20;3.90;;;0.50;;
72286;SDS011;60221;45.696;16.076;2023-03-14T02:39:48;4.30;;;0.40;;
72286;SDS011;60221;45.696;16.076;2023-03-14T02:42:16;2.10;;;0.10;;
72286;SDS011;60221;45.696;16.076;2023-03-14T02:44:52;4.10;;;0.30;;
72286;SDS011;60221;45.696;16.076;2023-03-14T02:47:20;3.40;;;0.20;;
72286;SDS011;60221;45.696;16.076;2023-03-14T02:49:49;4.30;;;0.50;;
72286;SDS011;60221;45.696;16.076;2023-03-14T02:52:16;5.40;;;0.40;;
72286;SDS011;60221;45.696;16.076;2023-03-14T02:54:43;5.90;;;0.30;;
72286;SDS011;60221;45.696;16.076;2023-03-14T02:57:10;4.10;;;0.30;;
72286;SDS011;60221;45.696;16.076;2023-03-14T02:59:37;2.20;;;0.10;;
72286;SDS011;60221;45.696;16.076;2023-03-14T03:02:11;4.80;;;0.30;;
72286;SDS011;60221;45.696;16.076;2023-03-14T03:04:37;3.30;;;0.30;;
72286;SDS011;60221;45.696;16.076;2023-03-14T03:07:04;2.90;;;0.30;;
72286;SDS011;60221;45.696;16.076;2023-03-14T03:09:31;3.10;;;0.30;;
72286;SDS011;60221;45.696;16.076;2023-03-14T03:11:58;3.00;;;0.30;;
72286;SDS011;60221;45.696;16.076;2023-03-14T03:14:25;2.80;;;0.10;;
72286;SDS011;60221;45.696;16.076;2023-03-14T03:16:54;3.20;;;0.50;;
72286;SDS011;60221;45.696;16.076;2023-03-14T03:19:21;4.00;;;0.50;;
72286;SDS011;60221;45.696;16.076;2023-03-14T03:21:48;3.10;;;0.40;;
72286;SDS011;60221;45.696;16.076;2023-03-14T03:24:15;4.10;;;0.50;;
72286;SDS011;60221;45.696;16.076;2023-03-14T03:26:41;4.70;;;0.50;;
72286;SDS011;60221;45.696;16.076;2023-03-14T03:29:09;5.70;;;0.90;;
72286;SDS011;60221;45.696;16.076;2023-03-14T03:31:39;6.70;;;1.00;;
72286;SDS011;60221;45.696;16.076;2023-03-14T03:34:05;8.70;;;1.30;;
72286;SDS011;60221;45.696;16.076;2023-03-14T03:36:32;7.30;;;1.40;;
72286;SDS011;60221;45.696;16.076;2023-03-14T03:38:59;9.30;;;1.80;;
72286;SDS011;60221;45.696;16.076;2023-03-14T03:41:26;8.80;;;2.40;;
72286;SDS011;60221;45.696;16.076;2023-03-14T03:43:53;10.80;;;2.80;;
72286;SDS011;60221;45.696;16.076;2023-03-14T03:46:21;9.90;;;2.40;;
72286;SDS011;60221;45.696;16.076;2023-03-14T03:48:53;11.30;;;2.70;;
72286;SDS011;60221;45.696;16.076;2023-03-14T03:51:20;9.90;;;3.00;;
72286;SDS011;60221;45.696;16.076;2023-03-14T03:53:47;9.30;;;2.30;;
72286;SDS011;60221;45.696;16.076;2023-03-14T03:56:15;9.30;;;2.10;;
72286;SDS011;60221;45.696;16.076;2023-03-14T03:58:42;7.30;;;1.70;;
72286;SDS011;60221;45.696;16.076;2023-03-14T04:01:09;10.20;;;2.10;;
72286;SDS011;60221;45.696;16.076;2023-03-14T04:03:37;7.70;;;1.40;;
72286;SDS011;60221;45.696;16.076;2023-03-14T04:06:08;7.00;;;1.50;;
72286;SDS011;60221;45.696;16.076;2023-03-14T04:08:37;6.10;;;1.10;;
72286;SDS011;60221;45.696;16.076;2023-03-14T04:11:05;6.80;;;0.90;;
72286;SDS011;60221;45.696;16.076;2023-03-14T04:13:53;6.40;;;0.80;;
72286;SDS011;60221;45.696;16.076;2023-03-14T04:16:21;6.70;;;0.90;;
72286;SDS011;60221;45.696;16.076;2023-03-14T04:18:51;7.10;;;1.40;;
72286;SDS011;60221;45.696;16.076;2023-03-14T04:21:20;6.20;;;1.40;;
72286;SDS011;60221;45.696;16.076;2023-03-14T04:23:50;9.00;;;1.50;;
72286;SDS011;60221;45.696;16.076;2023-03-14T04:26:17;7.70;;;2.00;;
72286;SDS011;60221;45.696;16.076;2023-03-14T04:28:44;8.40;;;1.90;;
72286;SDS011;60221;45.696;16.076;2023-03-14T04:31:11;7.80;;;1.80;;
72286;SDS011;60221;45.696;16.076;2023-03-14T04:33:39;7.40;;;2.20;;
72286;SDS011;60221;45.696;16.076;2023-03-14T04:36:06;11.60;;;2.70;;
72286;SDS011;60221;45.696;16.076;2023-03-14T04:38:34;9.30;;;2.00;;
72286;SDS011;60221;45.696;16.076;2023-03-14T04:41:01;12.10;;;2.70;;
72286;SDS011;60221;45.696;16.076;2023-03-14T04:43:31;11.70;;;3.70;;
72286;SDS011;60221;45.696;16.076;2023-03-14T04:46:02;11.80;;;2.60;;
72286;SDS011;60221;45.696;16.076;2023-03-14T04:48:29;13.20;;;3.50;;
72286;SDS011;60221;45.696;16.076;2023-03-14T04:50:57;15.00;;;3.70;;
72286;SDS011;60221;45.696;16.076;2023-03-14T04:53:24;16.90;;;4.50;;
72286;SDS011;60221;45.696;16.076;2023-03-14T04:55:54;25.10;;;8.90;;
72286;SDS011;60221;45.696;16.076;2023-03-14T04:58:23;20.70;;;6.30;;
72286;SDS011;60221;45.696;16.076;2023-03-14T05:00:50;18.50;;;6.00;;
72286;SDS011;60221;45.696;16.076;2023-03-14T05:03:33;16.80;;;5.70;;
72286;SDS011;60221;45.696;16.076;2023-03-14T05:06:05;14.20;;;4.00;;
72286;SDS011;60221;45.696;16.076;2023-03-14T05:08:32;13.10;;;3.30;;
72286;SDS011;60221;45.696;16.076;2023-03-14T05:11:17;13.40;;;3.50;;
72286;SDS011;60221;45.696;16.076;2023-03-14T05:14:03;13.40;;;3.80;;
72286;SDS011;60221;45.696;16.076;2023-03-14T05:16:53;12.40;;;4.50;;
72286;SDS011;60221;45.696;16.076;2023-03-14T05:19:40;12.10;;;3.40;;
72286;SDS011;60221;45.696;16.076;2023-03-14T05:22:07;13.20;;;3.80;;
72286;SDS011;60221;45.696;16.076;2023-03-14T05:24:59;13.90;;;3.60;;
72286;SDS011;60221;45.696;16.076;2023-03-14T05:27:47;15.70;;;3.40;;
72286;SDS011;60221;45.696;16.076;2023-03-14T05:30:32;12.70;;;3.20;;
72286;SDS011;60221;45.696;16.076;2023-03-14T05:33:18;14.00;;;3.40;;
72286;SDS011;60221;45.696;16.076;2023-03-14T05:35:56;13.30;;;3.20;;
72286;SDS011;60221;45.696;16.076;2023-03-14T05:38:41;12.60;;;3.10;;
72286;SDS011;60221;45.696;16.076;2023-03-14T05:41:23;12.30;;;2.60;;
72286;SDS011;60221;45.696;16.076;2023-03-14T05:44:22;10.90;;;2.20;;
72286;SDS011;60221;45.696;16.076;2023-03-14T05:47:09;8.20;;;2.10;;
72286;SDS011;60221;45.696;16.076;2023-03-14T05:49:47;7.70;;;1.80;;
72286;SDS011;60221;45.696;16.076;2023-03-14T05:52:35;5.30;;;1.20;;
72286;SDS011;60221;45.696;16.076;2023-03-14T05:55:11;6.50;;;1.50;;
72286;SDS011;60221;45.696;16.076;2023-03-14T05:58:01;6.20;;;1.50;;
72286;SDS011;60221;45.696;16.076;2023-03-14T06:00:49;8.80;;;2.30;;
72286;SDS011;60221;45.696;16.076;2023-03-14T06:03:21;9.70;;;2.60;;
72286;SDS011;60221;45.696;16.076;2023-03-14T06:05:51;8.10;;;2.20;;
72286;SDS011;60221;45.696;16.076;2023-03-14T06:08:19;9.60;;;3.20;;
72286;SDS011;60221;45.696;16.076;2023-03-14T06:10:46;9.60;;;2.80;;
72286;SDS011;60221;45.696;16.076;2023-03-14T06:13:12;12.90;;;3.30;;
72286;SDS011;60221;45.696;16.076;2023-03-14T06:15:41;15.80;;;3.50;;
72286;SDS011;60221;45.696;16.076;2023-03-14T06:18:08;10.80;;;3.20;;
72286;SDS011;60221;45.696;16.076;2023-03-14T06:20:38;12.50;;;4.00;;
72286;SDS011;60221;45.696;16.076;2023-03-14T06:23:10;10.80;;;2.60;;
72286;SDS011;60221;45.696;16.076;2023-03-14T06:25:37;17.50;;;5.10;;
72286;SDS011;60221;45.696;16.076;2023-03-14T06:28:04;10.40;;;2.60;;
72286;SDS011;60221;45.696;16.076;2023-03-14T06:30:31;11.50;;;3.30;;
72286;SDS011;60221;45.696;16.076;2023-03-14T06:32:58;9.10;;;3.30;;
72286;SDS011;60221;45.696;16.076;2023-03-14T06:35:25;11.50;;;3.50;;
72286;SDS011;60221;45.696;16.076;2023-03-14T06:37:52;10.50;;;4.10;;
72286;SDS011;60221;45.696;16.076;2023-03-14T06:40:19;10.50;;;2.80;;
72286;SDS011;60221;45.696;16.076;2023-03-14T06:42:55;9.10;;;3.10;;
72286;SDS011;60221;45.696;16.076;2023-03-14T06:45:22;11.50;;;3.60;;
72286;SDS011;60221;45.696;16.076;2023-03-14T06:47:50;10.30;;;2.60;;
72286;SDS011;60221;45.696;16.076;2023-03-14T06:50:18;5.50;;;1.40;;
72286;SDS011;60221;45.696;16.076;2023-03-14T06:52:46;7.10;;;1.90;;
72286;SDS011;60221;45.696;16.076;2023-03-14T06:55:18;54.20;;;21.60;;
72286;SDS011;60221;45.696;16.076;2023-03-14T06:57:48;51.80;;;25.60;;
72286;SDS011;60221;45.696;16.076;2023-03-14T07:00:15;21.10;;;10.00;;
72286;SDS011;60221;45.696;16.076;2023-03-14T07:02:42;11.20;;;3.30;;
72286;SDS011;60221;45.696;16.076;2023-03-14T07:05:23;6.60;;;2.10;;
72286;SDS011;60221;45.696;16.076;2023-03-14T07:07:50;6.50;;;1.20;;
72286;SDS011;60221;45.696;16.076;2023-03-14T07:10:17;4.10;;;0.80;;
72286;SDS011;60221;45.696;16.076;2023-03-14T07:12:44;6.10;;;1.10;;
72286;SDS011;60221;45.696;16.076;2023-03-14T07:15:11;4.60;;;0.60;;
72286;SDS011;60221;45.696;16.076;2023-03-14T07:17:45;3.60;;;0.90;;
72286;SDS011;60221;45.696;16.076;2023-03-14T07:20:12;6.30;;;1.10;;
72286;SDS011;60221;45.696;16.076;2023-03-14T07:22:39;18.30;;;6.30;;
72286;SDS011;60221;45.696;16.076;2023-03-14T07:25:07;13.90;;;6.20;;
72286;SDS011;60221;45.696;16.076;2023-03-14T07:27:36;8.70;;;2.40;;
72286;SDS011;60221;45.696;16.076;2023-03-14T07:30:02;10.10;;;4.00;;
72286;SDS011;60221;45.696;16.076;2023-03-14T07:32:29;7.00;;;3.00;;
72286;SDS011;60221;45.696;16.076;2023-03-14T07:34:56;59.10;;;33.40;;
72286;SDS011;60221;45.696;16.076;2023-03-14T07:37:23;48.90;;;27.10;;
72286;SDS011;60221;45.696;16.076;2023-03-14T07:39:50;37.90;;;20.70;;
72286;SDS011;60221;45.696;16.076;2023-03-14T07:42:20;55.20;;;36.30;;
72286;SDS011;60221;45.696;16.076;2023-03-14T07:45:08;40.20;;;24.40;;
72286;SDS011;60221;45.696;16.076;2023-03-14T07:47:35;31.00;;;17.60;;
72286;SDS011;60221;45.696;16.076;2023-03-14T07:50:03;15.80;;;8.40;;
72286;SDS011;60221;45.696;16.076;2023-03-14T07:52:36;7.30;;;2.30;;
72286;SDS011;60221;45.696;16.076;2023-03-14T07:55:03;10.40;;;3.30;;
72286;SDS011;60221;45.696;16.076;2023-03-14T07:57:30;13.40;;;6.60;;
72286;SDS011;60221;45.696;16.076;2023-03-14T07:59:57;8.50;;;3.70;;
72286;SDS011;60221;45.696;16.076;2023-03-14T08:02:23;36.40;;;19.20;;
72286;SDS011;60221;45.696;16.076;2023-03-14T08:04:50;14.10;;;6.40;;
72286;SDS011;60221;45.696;16.076;2023-03-14T08:07:17;18.80;;;7.80;;
72286;SDS011;60221;45.696;16.076;2023-03-14T08:09:44;22.70;;;10.80;;
72286;SDS011;60221;45.696;16.076;2023-03-14T08:12:10;10.20;;;3.80;;
72286;SDS011;60221;45.696;16.076;2023-03-14T08:14:37;11.40;;;4.50;;
72286;SDS011;60221;45.696;16.076;2023-03-14T08:17:04;9.30;;;3.70;;
72286;SDS011;60221;45.696;16.076;2023-03-14T08:19:31;6.40;;;2.50;;
72286;SDS011;60221;45.696;16.076;2023-03-14T08:21:58;5.50;;;1.40;;
72286;SDS011;60221;45.696;16.076;2023-03-14T08:24:25;5.70;;;1.10;;
72286;SDS011;60221;45.696;16.076;2023-03-14T08:26:51;9.10;;;1.50;;
72286;SDS011;60221;45.696;16.076;2023-03-14T08:29:18;3.70;;;0.40;;
72286;SDS011;60221;45.696;16.076;2023-03-14T08:31:45;4.20;;;0.50;;
72286;SDS011;60221;45.696;16.076;2023-03-14T08:34:12;15.30;;;5.90;;
72286;SDS011;60221;45.696;16.076;2023-03-14T08:36:39;10.20;;;4.10;;
72286;SDS011;60221;45.696;16.076;2023-03-14T08:39:06;5.70;;;1.70;;
72286;SDS011;60221;45.696;16.076;2023-03-14T08:41:34;5.00;;;1.40;;
72286;SDS011;60221;45.696;16.076;2023-03-14T08:44:07;4.80;;;1.20;;
72286;SDS011;60221;45.696;16.076;2023-03-14T08:46:34;5.00;;;1.40;;
72286;SDS011;60221;45.696;16.076;2023-03-14T08:49:00;3.40;;;0.80;;
72286;SDS011;60221;45.696;16.076;2023-03-14T08:51:27;3.90;;;1.00;;
72286;SDS011;60221;45.696;16.076;2023-03-14T08:53:54;8.30;;;3.20;;
72286;SDS011;60221;45.696;16.076;2023-03-14T08:56:21;4.00;;;0.90;;
72286;SDS011;60221;45.696;16.076;2023-03-14T08:58:51;5.70;;;1.20;;
72286;SDS011;60221;45.696;16.076;2023-03-14T09:01:18;5.30;;;1.70;;
72286;SDS011;60221;45.696;16.076;2023-03-14T09:03:46;4.60;;;1.30;;
72286;SDS011;60221;45.696;16.076;2023-03-14T09:06:14;4.20;;;0.90;;
72286;SDS011;60221;45.696;16.076;2023-03-14T09:08:44;4.30;;;1.60;;
72286;SDS011;60221;45.696;16.076;2023-03-14T09:11:12;6.40;;;0.80;;
72286;SDS011;60221;45.696;16.076;2023-03-14T09:13:39;4.00;;;0.80;;
72286;SDS011;60221;45.696;16.076;2023-03-14T09:16:06;3.20;;;0.50;;
72286;SDS011;60221;45.696;16.076;2023-03-14T09:18:33;2.80;;;0.50;;
72286;SDS011;60221;45.696;16.076;2023-03-14T09:21:00;3.50;;;0.50;;
72286;SDS011;60221;45.696;16.076;2023-03-14T09:23:27;6.80;;;2.40;;
72286;SDS011;60221;45.696;16.076;2023-03-14T09:25:54;5.00;;;1.30;;
72286;SDS011;60221;45.696;16.076;2023-03-14T09:28:21;4.40;;;0.80;;
72286;SDS011;60221;45.696;16.076;2023-03-14T09:30:48;3.20;;;0.70;;
72286;SDS011;60221;45.696;16.076;2023-03-14T09:33:16;3.80;;;0.50;;
72286;SDS011;60221;45.696;16.076;2023-03-14T09:35:43;4.70;;;0.90;;
72286;SDS011;60221;45.696;16.076;2023-03-14T09:38:10;4.10;;;0.80;;
72286;SDS011;60221;45.696;16.076;2023-03-14T09:40:37;3.40;;;0.40;;
72286;SDS011;60221;45.696;16.076;2023-03-14T09:43:04;2.70;;;0.40;;
72286;SDS011;60221;45.696;16.076;2023-03-14T09:45:37;3.10;;;0.40;;
72286;SDS011;60221;45.696;16.076;2023-03-14T09:48:17;3.50;;;0.90;;
72286;SDS011;60221;45.696;16.076;2023-03-14T09:50:49;3.10;;;0.50;;
72286;SDS011;60221;45.696;16.076;2023-03-14T09:53:17;3.90;;;0.80;;
72286;SDS011;60221;45.696;16.076;2023-03-14T09:55:45;5.70;;;1.10;;
72286;SDS011;60221;45.696;16.076;2023-03-14T09:58:14;3.60;;;0.40;;
72286;SDS011;60221;45.696;16.076;2023-03-14T10:00:42;5.50;;;0.50;;
72286;SDS011;60221;45.696;16.076;2023-03-14T10:05:40;4.20;;;0.60;;
72286;SDS011;60221;45.696;16.076;2023-03-14T10:08:10;4.50;;;0.90;;
72286;SDS011;60221;45.696;16.076;2023-03-14T10:10:37;3.60;;;0.50;;
72286;SDS011;60221;45.696;16.076;2023-03-14T10:13:25;4.00;;;0.70;;
72286;SDS011;60221;45.696;16.076;2023-03-14T10:15:55;2.80;;;0.30;;
72286;SDS011;60221;45.696;16.076;2023-03-14T10:18:25;3.20;;;0.30;;
72286;SDS011;60221;45.696;16.076;2023-03-14T10:21:09;2.00;;;0.30;;
72286;SDS011;60221;45.696;16.076;2023-03-14T10:23:43;3.80;;;0.40;;
72286;SDS011;60221;45.696;16.076;2023-03-14T10:26:14;4.40;;;0.60;;
72286;SDS011;60221;45.696;16.076;2023-03-14T10:28:48;1.60;;;0.30;;
72286;SDS011;60221;45.696;16.076;2023-03-14T10:31:17;2.30;;;0.30;;
72286;SDS011;60221;45.696;16.076;2023-03-14T10:33:57;4.00;;;0.40;;
72286;SDS011;60221;45.696;16.076;2023-03-14T10:36:26;2.80;;;0.50;;
72286;SDS011;60221;45.696;16.076;2023-03-14T10:39:37;2.40;;;0.30;;
72286;SDS011;60221;45.696;16.076;2023-03-14T10:41:48;2.30;;;0.40;;
72286;SDS011;60221;45.696;16.076;2023-03-14T10:44:17;2.40;;;0.40;;
72286;SDS011;60221;45.696;16.076;2023-03-14T10:46:45;2.50;;;0.30;;
72286;SDS011;60221;45.696;16.076;2023-03-14T10:49:29;2.40;;;0.30;;
72286;SDS011;60221;45.696;16.076;2023-03-14T10:52:00;4.20;;;0.50;;
72286;SDS011;60221;45.696;16.076;2023-03-14T10:54:29;2.50;;;0.30;;
72286;SDS011;60221;45.696;16.076;2023-03-14T10:57:00;3.00;;;0.30;;
72286;SDS011;60221;45.696;16.076;2023-03-14T10:59:37;2.20;;;0.20;;
72286;SDS011;60221;45.696;16.076;2023-03-14T11:02:23;3.10;;;0.50;;
72286;SDS011;60221;45.696;16.076;2023-03-14T11:07:43;2.30;;;0.20;;
72286;SDS011;60221;45.696;16.076;2023-03-14T11:12:49;2.20;;;0.30;;
72286;SDS011;60221;45.696;16.076;2023-03-14T11:15:30;1.80;;;0.30;;
72286;SDS011;60221;45.696;16.076;2023-03-14T11:20:59;3.60;;;0.30;;
72286;SDS011;60221;45.696;16.076;2023-03-14T11:23:30;2.60;;;0.30;;
72286;SDS011;60221;45.696;16.076;2023-03-14T11:26:01;4.40;;;0.60;;
72286;SDS011;60221;45.696;16.076;2023-03-14T11:28:38;2.40;;;0.30;;
72286;SDS011;60221;45.696;16.076;2023-03-14T11:36:19;3.30;;;0.50;;
72286;SDS011;60221;45.696;16.076;2023-03-14T11:38:49;2.10;;;0.30;;
72286;SDS011;60221;45.696;16.076;2023-03-14T11:43:47;2.40;;;0.40;;
72286;SDS011;60221;45.696;16.076;2023-03-14T11:46:59;3.20;;;0.50;;
72286;SDS011;60221;45.696;16.076;2023-03-14T11:51:46;2.10;;;0.40;;
72286;SDS011;60221;45.696;16.076;2023-03-14T11:54:25;2.40;;;0.40;;
72286;SDS011;60221;45.696;16.076;2023-03-14T11:57:33;2.10;;;0.40;;
72286;SDS011;60221;45.696;16.076;2023-03-14T12:00:04;3.20;;;0.50;;
72286;SDS011;60221;45.696;16.076;2023-03-14T12:02:51;2.70;;;0.40;;
72286;SDS011;60221;45.696;16.076;2023-03-14T12:08:02;2.70;;;0.80;;
72286;SDS011;60221;45.696;16.076;2023-03-14T12:10:45;4.60;;;0.70;;
72286;SDS011;60221;45.696;16.076;2023-03-14T12:13:13;2.90;;;0.50;;
72286;SDS011;60221;45.696;16.076;2023-03-14T12:15:53;2.80;;;0.40;;
72286;SDS011;60221;45.696;16.076;2023-03-14T12:20:51;3.20;;;0.80;;
72286;SDS011;60221;45.696;16.076;2023-03-14T12:23:20;5.60;;;0.80;;
72286;SDS011;60221;45.696;16.076;2023-03-14T12:25:47;3.50;;;0.80;;
72286;SDS011;60221;45.696;16.076;2023-03-14T12:30:40;3.90;;;0.90;;
72286;SDS011;60221;45.696;16.076;2023-03-14T12:33:11;5.50;;;1.60;;
72286;SDS011;60221;45.696;16.076;2023-03-14T12:35:48;7.10;;;1.00;;
72286;SDS011;60221;45.696;16.076;2023-03-14T12:38:23;3.10;;;0.80;;
72286;SDS011;60221;45.696;16.076;2023-03-14T12:43:38;4.10;;;1.20;;
72286;SDS011;60221;45.696;16.076;2023-03-14T12:48:45;4.20;;;1.00;;
72286;SDS011;60221;45.696;16.076;2023-03-14T12:51:13;4.90;;;0.60;;
72286;SDS011;60221;45.696;16.076;2023-03-14T12:54:00;4.60;;;1.00;;
72286;SDS011;60221;45.696;16.076;2023-03-14T13:01:53;2.50;;;0.50;;
72286;SDS011;60221;45.696;16.076;2023-03-14T13:04:20;3.20;;;0.70;;
72286;SDS011;60221;45.696;16.076;2023-03-14T13:07:04;2.70;;;0.30;;
72286;SDS011;60221;45.696;16.076;2023-03-14T13:12:11;3.10;;;0.40;;
72286;SDS011;60221;45.696;16.076;2023-03-14T13:14:43;3.00;;;0.50;;
72286;SDS011;60221;45.696;16.076;2023-03-14T13:17:11;4.50;;;0.50;;
72286;SDS011;60221;45.696;16.076;2023-03-14T13:20:00;3.90;;;1.40;;
72286;SDS011;60221;45.696;16.076;2023-03-14T13:22:30;7.80;;;2.20;;
72286;SDS011;60221;45.696;16.076;2023-03-14T13:25:05;9.40;;;7.00;;
72286;SDS011;60221;45.696;16.076;2023-03-14T13:27:33;14.80;;;9.20;;
72286;SDS011;60221;45.696;16.076;2023-03-14T13:30:20;4.20;;;1.60;;
72286;SDS011;60221;45.696;16.076;2023-03-14T13:32:48;3.30;;;0.60;;
72286;SDS011;60221;45.696;16.076;2023-03-14T13:35:18;9.20;;;0.80;;
72286;SDS011;60221;45.696;16.076;2023-03-14T13:37:45;2.70;;;0.50;;
72286;SDS011;60221;45.696;16.076;2023-03-14T13:40:23;3.50;;;0.60;;
72286;SDS011;60221;45.696;16.076;2023-03-14T13:42:58;5.40;;;1.40;;
72286;SDS011;60221;45.696;16.076;2023-03-14T13:45:25;2.70;;;0.30;;
72286;SDS011;60221;45.696;16.076;2023-03-14T13:47:52;5.10;;;1.10;;
72286;SDS011;60221;45.696;16.076;2023-03-14T13:50:19;5.30;;;0.90;;
72286;SDS011;60221;45.696;16.076;2023-03-14T13:52:46;4.70;;;1.40;;
72286;SDS011;60221;45.696;16.076;2023-03-14T13:55:15;4.10;;;0.80;;
72286;SDS011;60221;45.696;16.076;2023-03-14T13:57:44;3.10;;;0.50;;
72286;SDS011;60221;45.696;16.076;2023-03-14T14:00:18;4.40;;;0.90;;
72286;SDS011;60221;45.696;16.076;2023-03-14T14:02:45;3.80;;;0.90;;
72286;SDS011;60221;45.696;16.076;2023-03-14T14:05:13;3.80;;;0.60;;
72286;SDS011;60221;45.696;16.076;2023-03-14T14:07:40;4.50;;;0.50;;
72286;SDS011;60221;45.696;16.076;2023-03-14T14:10:10;3.40;;;0.30;;
72286;SDS011;60221;45.696;16.076;2023-03-14T14:12:39;2.80;;;0.40;;
72286;SDS011;60221;45.696;16.076;2023-03-14T14:15:20;2.70;;;0.40;;
72286;SDS011;60221;45.696;16.076;2023-03-14T14:17:51;3.50;;;0.50;;
72286;SDS011;60221;45.696;16.076;2023-03-14T14:22:45;3.60;;;0.90;;
72286;SDS011;60221;45.696;16.076;2023-03-14T14:25:13;3.90;;;0.60;;
72286;SDS011;60221;45.696;16.076;2023-03-14T14:27:46;4.10;;;0.90;;
72286;SDS011;60221;45.696;16.076;2023-03-14T14:32:40;4.50;;;0.70;;
72286;SDS011;60221;45.696;16.076;2023-03-14T14:35:08;4.20;;;0.60;;
72286;SDS011;60221;45.696;16.076;2023-03-14T14:37:43;3.50;;;0.60;;
72286;SDS011;60221;45.696;16.076;2023-03-14T14:40:16;4.30;;;1.30;;
72286;SDS011;60221;45.696;16.076;2023-03-14T14:42:43;4.90;;;1.00;;
72286;SDS011;60221;45.696;16.076;2023-03-14T14:45:16;3.80;;;0.80;;
72286;SDS011;60221;45.696;16.076;2023-03-14T14:47:54;4.50;;;1.10;;
72286;SDS011;60221;45.696;16.076;2023-03-14T14:50:27;5.70;;;1.90;;
72286;SDS011;60221;45.696;16.076;2023-03-14T14:52:58;5.10;;;1.50;;
72286;SDS011;60221;45.696;16.076;2023-03-14T14:55:32;5.00;;;1.20;;
72286;SDS011;60221;45.696;16.076;2023-03-14T14:58:11;5.60;;;1.00;;
72286;SDS011;60221;45.696;16.076;2023-03-14T15:00:39;4.10;;;0.70;;
72286;SDS011;60221;45.696;16.076;2023-03-14T15:03:10;3.90;;;0.80;;
72286;SDS011;60221;45.696;16.076;2023-03-14T15:05:38;4.60;;;0.90;;
72286;SDS011;60221;45.696;16.076;2023-03-14T15:08:09;5.00;;;1.50;;
72286;SDS011;60221;45.696;16.076;2023-03-14T15:10:36;8.80;;;1.30;;
72286;SDS011;60221;45.696;16.076;2023-03-14T15:13:03;6.80;;;1.60;;
72286;SDS011;60221;45.696;16.076;2023-03-14T15:15:29;7.30;;;5.00;;
72286;SDS011;60221;45.696;16.076;2023-03-14T15:17:56;8.70;;;4.80;;
72286;SDS011;60221;45.696;16.076;2023-03-14T15:20:23;5.20;;;2.60;;
72286;SDS011;60221;45.696;16.076;2023-03-14T15:22:50;8.90;;;3.00;;
72286;SDS011;60221;45.696;16.076;2023-03-14T15:25:17;6.00;;;1.50;;
72286;SDS011;60221;45.696;16.076;2023-03-14T15:28:05;6.40;;;1.50;;
72286;SDS011;60221;45.696;16.076;2023-03-14T15:30:35;6.60;;;2.50;;
72286;SDS011;60221;45.696;16.076;2023-03-14T15:33:02;6.40;;;1.90;;
72286;SDS011;60221;45.696;16.076;2023-03-14T15:35:29;10.10;;;1.90;;
72286;SDS011;60221;45.696;16.076;2023-03-14T15:37:55;4.70;;;1.10;;
72286;SDS011;60221;45.696;16.076;2023-03-14T15:40:23;4.60;;;1.10;;